sensor_id;sensor_type;location;lat;lon;timestamp;P1;durP1;ratioP1;P2;durP2;ratioP2
2522;SDS011;1272;53.332;9.860;2023-01-04T00:02:02;3.37;;;3.10;;
2522;SDS011;1272;53.332;9.860;2023-01-04T00:04:28;4.67;;;2.83;;
2522;SDS011;1272;53.332;9.860;2023-01-04T00:06:53;2.63;;;2.43;;
2522;SDS011;1272;53.332;9.860;2023-01-04T00:09:20;2.77;;;2.20;;
2522;SDS011;1272;53.332;9.860;2023-01-04T00:11:46;2.30;;;2.20;;
2522;SDS011;1272;53.332;9.860;2023-01-04T00:14:12;2.93;;;2.73;;
2522;SDS011;1272;53.332;9.860;2023-01-04T00:16:38;3.57;;;2.47;;
2522;SDS011;1272;53.332;9.860;2023-01-04T00:19:04;3.97;;;2.67;;
2522;SDS011;1272;53.332;9.860;2023-01-04T00:21:30;2.40;;;2.17;;
2522;SDS011;1272;53.332;9.860;2023-01-04T00:23:57;3.13;;;2.30;;
2522;SDS011;1272;53.332;9.860;2023-01-04T00:26:27;5.50;;;3.07;;
2522;SDS011;1272;53.332;9.860;2023-01-04T00:28:56;2.70;;;2.20;;
2522;SDS011;1272;53.332;9.860;2023-01-04T00:31:23;4.10;;;2.30;;
2522;SDS011;1272;53.332;9.860;2023-01-04T00:33:52;3.67;;;2.33;;
2522;SDS011;1272;53.332;9.860;2023-01-04T00:36:18;2.30;;;2.10;;
2522;SDS011;1272;53.332;9.860;2023-01-04T00:38:44;2.53;;;2.33;;
2522;SDS011;1272;53.332;9.860;2023-01-04T00:41:10;2.70;;;2.27;;
2522;SDS011;1272;53.332;9.860;2023-01-04T00:43:37;2.80;;;1.77;;
2522;SDS011;1272;53.332;9.860;2023-01-04T00:46:03;2.37;;;2.20;;
2522;SDS011;1272;53.332;9.860;2023-01-04T00:48:31;4.23;;;2.33;;
2522;SDS011;1272;53.332;9.860;2023-01-04T00:50:56;2.30;;;2.10;;
2522;SDS011;1272;53.332;9.860;2023-01-04T00:53:23;3.20;;;2.10;;
2522;SDS011;1272;53.332;9.860;2023-01-04T00:55:49;2.73;;;2.17;;
2522;SDS011;1272;53.332;9.860;2023-01-04T00:58:15;5.80;;;2.53;;
2522;SDS011;1272;53.332;9.860;2023-01-04T01:00:41;2.13;;;1.90;;
2522;SDS011;1272;53.332;9.860;2023-01-04T01:03:07;8.43;;;2.80;;
2522;SDS011;1272;53.332;9.860;2023-01-04T01:05:33;3.47;;;2.30;;
2522;SDS011;1272;53.332;9.860;2023-01-04T01:08:00;9.70;;;2.93;;
2522;SDS011;1272;53.332;9.860;2023-01-04T01:10:48;4.00;;;2.53;;
2522;SDS011;1272;53.332;9.860;2023-01-04T01:13:15;4.13;;;2.50;;
2522;SDS011;1272;53.332;9.860;2023-01-04T01:15:40;2.77;;;2.43;;
2522;SDS011;1272;53.332;9.860;2023-01-04T01:18:06;6.00;;;2.60;;
2522;SDS011;1272;53.332;9.860;2023-01-04T01:20:32;2.30;;;1.87;;
2522;SDS011;1272;53.332;9.860;2023-01-04T01:22:57;7.37;;;2.60;;
2522;SDS011;1272;53.332;9.860;2023-01-04T01:25:23;4.37;;;2.50;;
2522;SDS011;1272;53.332;9.860;2023-01-04T01:27:48;2.17;;;2.07;;
2522;SDS011;1272;53.332;9.860;2023-01-04T01:30:14;3.30;;;2.27;;
2522;SDS011;1272;53.332;9.860;2023-01-04T01:32:40;4.67;;;2.07;;
2522;SDS011;1272;53.332;9.860;2023-01-04T01:35:05;5.30;;;1.93;;
2522;SDS011;1272;53.332;9.860;2023-01-04T01:37:31;2.53;;;1.90;;
2522;SDS011;1272;53.332;9.860;2023-01-04T01:39:57;4.23;;;2.50;;
2522;SDS011;1272;53.332;9.860;2023-01-04T01:42:23;3.27;;;2.40;;
2522;SDS011;1272;53.332;9.860;2023-01-04T01:44:59;6.60;;;2.10;;
2522;SDS011;1272;53.332;9.860;2023-01-04T01:47:30;3.93;;;2.20;;
2522;SDS011;1272;53.332;9.860;2023-01-04T01:50:03;4.43;;;1.93;;
2522;SDS011;1272;53.332;9.860;2023-01-04T01:52:34;4.93;;;2.33;;
2522;SDS011;1272;53.332;9.860;2023-01-04T01:55:03;4.50;;;2.37;;
2522;SDS011;1272;53.332;9.860;2023-01-04T01:57:33;3.30;;;2.00;;
2522;SDS011;1272;53.332;9.860;2023-01-04T02:00:06;2.23;;;1.80;;
2522;SDS011;1272;53.332;9.860;2023-01-04T02:02:36;3.23;;;2.00;;
2522;SDS011;1272;53.332;9.860;2023-01-04T02:05:08;5.97;;;2.70;;
2522;SDS011;1272;53.332;9.860;2023-01-04T02:07:34;4.00;;;2.60;;
2522;SDS011;1272;53.332;9.860;2023-01-04T02:10:01;3.87;;;2.40;;
2522;SDS011;1272;53.332;9.860;2023-01-04T02:12:27;2.30;;;2.20;;
2522;SDS011;1272;53.332;9.860;2023-01-04T02:14:53;1.90;;;1.80;;
2522;SDS011;1272;53.332;9.860;2023-01-04T02:36:57;4.07;;;2.20;;
2522;SDS011;1272;53.332;9.860;2023-01-04T02:39:34;6.60;;;1.73;;
2522;SDS011;1272;53.332;9.860;2023-01-04T02:42:18;2.70;;;2.00;;
2522;SDS011;1272;53.332;9.860;2023-01-04T02:47:40;7.13;;;2.00;;
2522;SDS011;1272;53.332;9.860;2023-01-04T02:50:38;2.00;;;1.80;;
2522;SDS011;1272;53.332;9.860;2023-01-04T02:53:16;2.27;;;2.13;;
2522;SDS011;1272;53.332;9.860;2023-01-04T03:13:09;3.40;;;2.07;;
2522;SDS011;1272;53.332;9.860;2023-01-04T03:16:14;6.10;;;2.40;;
2522;SDS011;1272;53.332;9.860;2023-01-04T03:18:46;2.17;;;1.97;;
2522;SDS011;1272;53.332;9.860;2023-01-04T03:21:15;7.47;;;2.40;;
2522;SDS011;1272;53.332;9.860;2023-01-04T03:23:43;3.57;;;1.87;;
2522;SDS011;1272;53.332;9.860;2023-01-04T03:26:32;3.00;;;2.00;;
2522;SDS011;1272;53.332;9.860;2023-01-04T03:29:24;3.70;;;1.93;;
2522;SDS011;1272;53.332;9.860;2023-01-04T03:32:20;3.90;;;2.13;;
2522;SDS011;1272;53.332;9.860;2023-01-04T03:35:19;2.60;;;2.40;;
2522;SDS011;1272;53.332;9.860;2023-01-04T03:41:09;2.73;;;1.80;;
2522;SDS011;1272;53.332;9.860;2023-01-04T03:47:16;2.37;;;2.07;;
2522;SDS011;1272;53.332;9.860;2023-01-04T03:50:12;3.07;;;2.33;;
2522;SDS011;1272;53.332;9.860;2023-01-04T03:52:45;2.93;;;2.03;;
2522;SDS011;1272;53.332;9.860;2023-01-04T03:55:12;2.27;;;2.17;;
2522;SDS011;1272;53.332;9.860;2023-01-04T03:57:40;2.60;;;1.80;;
2522;SDS011;1272;53.332;9.860;2023-01-04T04:00:09;5.00;;;2.17;;
2522;SDS011;1272;53.332;9.860;2023-01-04T04:02:40;3.33;;;2.30;;
2522;SDS011;1272;53.332;9.860;2023-01-04T04:05:06;4.30;;;2.63;;
2522;SDS011;1272;53.332;9.860;2023-01-04T04:07:54;4.23;;;2.07;;
2522;SDS011;1272;53.332;9.860;2023-01-04T04:10:38;3.10;;;2.03;;
2522;SDS011;1272;53.332;9.860;2023-01-04T04:13:04;4.90;;;1.77;;
2522;SDS011;1272;53.332;9.860;2023-01-04T04:15:30;6.27;;;2.27;;
2522;SDS011;1272;53.332;9.860;2023-01-04T04:17:55;2.70;;;2.13;;
2522;SDS011;1272;53.332;9.860;2023-01-04T04:20:21;4.30;;;2.53;;
2522;SDS011;1272;53.332;9.860;2023-01-04T04:22:46;4.90;;;2.60;;
2522;SDS011;1272;53.332;9.860;2023-01-04T04:25:12;4.80;;;2.00;;
2522;SDS011;1272;53.332;9.860;2023-01-04T04:27:38;3.20;;;2.90;;
2522;SDS011;1272;53.332;9.860;2023-01-04T04:30:04;2.40;;;2.20;;
2522;SDS011;1272;53.332;9.860;2023-01-04T04:32:30;2.60;;;2.37;;
2522;SDS011;1272;53.332;9.860;2023-01-04T04:34:55;5.40;;;2.00;;
2522;SDS011;1272;53.332;9.860;2023-01-04T04:37:21;3.00;;;2.70;;
2522;SDS011;1272;53.332;9.860;2023-01-04T04:39:47;2.40;;;2.13;;
2522;SDS011;1272;53.332;9.860;2023-01-04T04:42:12;3.23;;;2.40;;
2522;SDS011;1272;53.332;9.860;2023-01-04T04:44:38;4.10;;;2.27;;
2522;SDS011;1272;53.332;9.860;2023-01-04T04:47:04;2.90;;;2.10;;
2522;SDS011;1272;53.332;9.860;2023-01-04T04:49:29;3.50;;;2.10;;
2522;SDS011;1272;53.332;9.860;2023-01-04T04:51:56;2.57;;;2.37;;
2522;SDS011;1272;53.332;9.860;2023-01-04T04:54:22;6.33;;;2.37;;
2522;SDS011;1272;53.332;9.860;2023-01-04T04:56:48;3.07;;;2.87;;
2522;SDS011;1272;53.332;9.860;2023-01-04T04:59:14;4.20;;;2.53;;
2522;SDS011;1272;53.332;9.860;2023-01-04T05:01:40;4.60;;;2.47;;
2522;SDS011;1272;53.332;9.860;2023-01-04T05:04:06;3.03;;;2.83;;
2522;SDS011;1272;53.332;9.860;2023-01-04T05:06:32;8.50;;;2.53;;
2522;SDS011;1272;53.332;9.860;2023-01-04T05:08:58;6.07;;;2.67;;
2522;SDS011;1272;53.332;9.860;2023-01-04T05:11:24;8.87;;;2.37;;
2522;SDS011;1272;53.332;9.860;2023-01-04T05:14:08;2.80;;;2.60;;
2522;SDS011;1272;53.332;9.860;2023-01-04T05:16:37;4.30;;;3.43;;
2522;SDS011;1272;53.332;9.860;2023-01-04T05:19:03;3.10;;;2.80;;
2522;SDS011;1272;53.332;9.860;2023-01-04T05:21:29;2.57;;;2.40;;
2522;SDS011;1272;53.332;9.860;2023-01-04T05:23:54;2.90;;;2.30;;
2522;SDS011;1272;53.332;9.860;2023-01-04T05:26:23;3.50;;;2.63;;
2522;SDS011;1272;53.332;9.860;2023-01-04T05:28:48;3.03;;;2.60;;
2522;SDS011;1272;53.332;9.860;2023-01-04T05:31:14;4.07;;;2.50;;
2522;SDS011;1272;53.332;9.860;2023-01-04T05:33:40;2.60;;;2.10;;
2522;SDS011;1272;53.332;9.860;2023-01-04T05:36:05;2.70;;;2.10;;
2522;SDS011;1272;53.332;9.860;2023-01-04T05:38:31;4.33;;;2.20;;
2522;SDS011;1272;53.332;9.860;2023-01-04T05:40:58;1.80;;;1.70;;
2522;SDS011;1272;53.332;9.860;2023-01-04T05:43:25;2.40;;;2.17;;
2522;SDS011;1272;53.332;9.860;2023-01-04T05:45:54;2.27;;;2.07;;
2522;SDS011;1272;53.332;9.860;2023-01-04T05:48:21;3.03;;;2.83;;
2522;SDS011;1272;53.332;9.860;2023-01-04T05:50:48;2.50;;;2.30;;
2522;SDS011;1272;53.332;9.860;2023-01-04T05:53:14;3.70;;;2.23;;
2522;SDS011;1272;53.332;9.860;2023-01-04T05:55:46;2.53;;;2.33;;
2522;SDS011;1272;53.332;9.860;2023-01-04T05:58:12;7.80;;;2.17;;
2522;SDS011;1272;53.332;9.860;2023-01-04T06:00:38;2.00;;;1.90;;
2522;SDS011;1272;53.332;9.860;2023-01-04T06:03:03;2.67;;;2.43;;
2522;SDS011;1272;53.332;9.860;2023-01-04T06:05:29;2.20;;;1.90;;
2522;SDS011;1272;53.332;9.860;2023-01-04T06:07:55;2.20;;;2.00;;
2522;SDS011;1272;53.332;9.860;2023-01-04T06:10:20;2.60;;;2.40;;
2522;SDS011;1272;53.332;9.860;2023-01-04T06:12:46;2.50;;;2.40;;
2522;SDS011;1272;53.332;9.860;2023-01-04T06:15:13;6.73;;;2.80;;
2522;SDS011;1272;53.332;9.860;2023-01-04T06:17:39;2.90;;;2.53;;
2522;SDS011;1272;53.332;9.860;2023-01-04T06:20:05;2.30;;;2.10;;
2522;SDS011;1272;53.332;9.860;2023-01-04T06:22:33;3.33;;;2.10;;
2522;SDS011;1272;53.332;9.860;2023-01-04T06:24:59;2.33;;;2.10;;
2522;SDS011;1272;53.332;9.860;2023-01-04T06:27:25;4.93;;;2.33;;
2522;SDS011;1272;53.332;9.860;2023-01-04T06:29:51;2.83;;;2.50;;
2522;SDS011;1272;53.332;9.860;2023-01-04T06:32:19;4.60;;;2.90;;
2522;SDS011;1272;53.332;9.860;2023-01-04T06:34:45;4.60;;;2.20;;
2522;SDS011;1272;53.332;9.860;2023-01-04T06:37:11;3.00;;;2.77;;
2522;SDS011;1272;53.332;9.860;2023-01-04T06:39:36;3.37;;;3.07;;
2522;SDS011;1272;53.332;9.860;2023-01-04T06:42:03;3.00;;;2.80;;
2522;SDS011;1272;53.332;9.860;2023-01-04T06:44:29;2.93;;;2.60;;
2522;SDS011;1272;53.332;9.860;2023-01-04T06:46:57;3.97;;;2.40;;
2522;SDS011;1272;53.332;9.860;2023-01-04T06:49:23;2.60;;;2.50;;
2522;SDS011;1272;53.332;9.860;2023-01-04T06:51:48;3.07;;;2.80;;
2522;SDS011;1272;53.332;9.860;2023-01-04T06:54:14;4.27;;;2.57;;
2522;SDS011;1272;53.332;9.860;2023-01-04T06:56:40;2.93;;;2.83;;
2522;SDS011;1272;53.332;9.860;2023-01-04T06:59:06;3.20;;;2.87;;
2522;SDS011;1272;53.332;9.860;2023-01-04T07:01:33;3.00;;;2.70;;
2522;SDS011;1272;53.332;9.860;2023-01-04T07:03:59;2.90;;;2.70;;
2522;SDS011;1272;53.332;9.860;2023-01-04T07:06:24;2.93;;;2.70;;
2522;SDS011;1272;53.332;9.860;2023-01-04T07:08:50;3.03;;;2.83;;
2522;SDS011;1272;53.332;9.860;2023-01-04T07:11:16;3.10;;;2.90;;
2522;SDS011;1272;53.332;9.860;2023-01-04T07:13:41;3.47;;;3.27;;
2522;SDS011;1272;53.332;9.860;2023-01-04T07:16:07;3.80;;;3.50;;
2522;SDS011;1272;53.332;9.860;2023-01-04T07:18:33;3.17;;;2.97;;
2522;SDS011;1272;53.332;9.860;2023-01-04T07:20:58;3.77;;;3.50;;
2522;SDS011;1272;53.332;9.860;2023-01-04T07:23:24;3.20;;;3.00;;
2522;SDS011;1272;53.332;9.860;2023-01-04T07:25:50;4.07;;;3.70;;
2522;SDS011;1272;53.332;9.860;2023-01-04T07:28:15;4.00;;;3.80;;
2522;SDS011;1272;53.332;9.860;2023-01-04T07:31:05;6.17;;;5.60;;
2522;SDS011;1272;53.332;9.860;2023-01-04T07:33:31;5.73;;;4.90;;
2522;SDS011;1272;53.332;9.860;2023-01-04T07:36:04;4.60;;;4.27;;
2522;SDS011;1272;53.332;9.860;2023-01-04T07:38:31;7.13;;;6.03;;
2522;SDS011;1272;53.332;9.860;2023-01-04T07:40:58;6.60;;;5.43;;
2522;SDS011;1272;53.332;9.860;2023-01-04T07:43:24;7.17;;;6.50;;
2522;SDS011;1272;53.332;9.860;2023-01-04T07:45:50;6.70;;;6.10;;
2522;SDS011;1272;53.332;9.860;2023-01-04T07:48:16;7.17;;;6.53;;
2522;SDS011;1272;53.332;9.860;2023-01-04T07:50:43;6.30;;;5.80;;
2522;SDS011;1272;53.332;9.860;2023-01-04T07:53:09;7.80;;;6.90;;
2522;SDS011;1272;53.332;9.860;2023-01-04T07:55:36;8.70;;;7.07;;
2522;SDS011;1272;53.332;9.860;2023-01-04T07:58:01;9.23;;;6.83;;
2522;SDS011;1272;53.332;9.860;2023-01-04T08:00:27;6.20;;;5.60;;
2522;SDS011;1272;53.332;9.860;2023-01-04T08:02:53;7.17;;;6.50;;
2522;SDS011;1272;53.332;9.860;2023-01-04T08:05:19;8.07;;;7.23;;
2522;SDS011;1272;53.332;9.860;2023-01-04T08:07:44;6.30;;;5.70;;
2522;SDS011;1272;53.332;9.860;2023-01-04T08:10:10;8.70;;;7.07;;
2522;SDS011;1272;53.332;9.860;2023-01-04T08:12:36;8.23;;;7.40;;
2522;SDS011;1272;53.332;9.860;2023-01-04T08:15:01;8.00;;;6.80;;
2522;SDS011;1272;53.332;9.860;2023-01-04T08:17:27;8.20;;;7.50;;
2522;SDS011;1272;53.332;9.860;2023-01-04T08:19:53;7.77;;;7.07;;
2522;SDS011;1272;53.332;9.860;2023-01-04T08:22:18;8.20;;;7.40;;
2522;SDS011;1272;53.332;9.860;2023-01-04T08:24:44;6.87;;;6.20;;
2522;SDS011;1272;53.332;9.860;2023-01-04T08:27:10;7.53;;;6.83;;
2522;SDS011;1272;53.332;9.860;2023-01-04T08:29:35;7.70;;;6.50;;
2522;SDS011;1272;53.332;9.860;2023-01-04T08:32:02;5.93;;;5.43;;
2522;SDS011;1272;53.332;9.860;2023-01-04T08:34:28;6.83;;;6.23;;
2522;SDS011;1272;53.332;9.860;2023-01-04T08:36:53;6.40;;;5.90;;
2522;SDS011;1272;53.332;9.860;2023-01-04T08:39:20;6.33;;;5.80;;
2522;SDS011;1272;53.332;9.860;2023-01-04T08:41:46;6.77;;;6.17;;
2522;SDS011;1272;53.332;9.860;2023-01-04T08:44:19;6.40;;;5.90;;
2522;SDS011;1272;53.332;9.860;2023-01-04T08:46:46;6.07;;;5.57;;
2522;SDS011;1272;53.332;9.860;2023-01-04T08:49:12;5.97;;;5.47;;
2522;SDS011;1272;53.332;9.860;2023-01-04T08:51:39;6.37;;;5.87;;
2522;SDS011;1272;53.332;9.860;2023-01-04T08:54:05;6.50;;;5.90;;
2522;SDS011;1272;53.332;9.860;2023-01-04T08:56:30;6.73;;;6.13;;
2522;SDS011;1272;53.332;9.860;2023-01-04T08:58:56;5.70;;;5.30;;
2522;SDS011;1272;53.332;9.860;2023-01-04T09:01:22;6.43;;;5.87;;
2522;SDS011;1272;53.332;9.860;2023-01-04T09:03:47;8.07;;;5.70;;
2522;SDS011;1272;53.332;9.860;2023-01-04T09:06:13;6.10;;;5.60;;
2522;SDS011;1272;53.332;9.860;2023-01-04T09:08:40;6.60;;;6.10;;
2522;SDS011;1272;53.332;9.860;2023-01-04T09:11:08;6.90;;;6.20;;
2522;SDS011;1272;53.332;9.860;2023-01-04T09:13:39;7.27;;;6.57;;
2522;SDS011;1272;53.332;9.860;2023-01-04T09:16:10;7.07;;;6.37;;
2522;SDS011;1272;53.332;9.860;2023-01-04T09:18:37;6.80;;;6.20;;
2522;SDS011;1272;53.332;9.860;2023-01-04T09:21:04;7.43;;;6.73;;
2522;SDS011;1272;53.332;9.860;2023-01-04T09:23:33;7.10;;;6.50;;
2522;SDS011;1272;53.332;9.860;2023-01-04T09:26:03;6.57;;;6.07;;
2522;SDS011;1272;53.332;9.860;2023-01-04T09:28:40;6.90;;;6.30;;
2522;SDS011;1272;53.332;9.860;2023-01-04T09:31:08;8.30;;;7.60;;
2522;SDS011;1272;53.332;9.860;2023-01-04T09:33:36;6.90;;;6.30;;
2522;SDS011;1272;53.332;9.860;2023-01-04T09:36:02;6.63;;;6.03;;
2522;SDS011;1272;53.332;9.860;2023-01-04T09:38:29;8.20;;;7.50;;
2522;SDS011;1272;53.332;9.860;2023-01-04T09:41:07;7.83;;;7.13;;
2522;SDS011;1272;53.332;9.860;2023-01-04T09:43:48;7.90;;;7.30;;
2522;SDS011;1272;53.332;9.860;2023-01-04T09:52:11;7.77;;;7.00;;
2522;SDS011;1272;53.332;9.860;2023-01-04T09:57:25;7.17;;;6.57;;
2522;SDS011;1272;53.332;9.860;2023-01-04T10:00:04;7.20;;;6.60;;
2522;SDS011;1272;53.332;9.860;2023-01-04T10:02:46;8.00;;;7.30;;
2522;SDS011;1272;53.332;9.860;2023-01-04T10:05:26;7.40;;;6.70;;
2522;SDS011;1272;53.332;9.860;2023-01-04T10:07:53;6.53;;;6.03;;
2522;SDS011;1272;53.332;9.860;2023-01-04T10:10:20;7.67;;;6.33;;
2522;SDS011;1272;53.332;9.860;2023-01-04T10:15:39;5.90;;;5.40;;
2522;SDS011;1272;53.332;9.860;2023-01-04T10:18:28;6.13;;;5.53;;
2522;SDS011;1272;53.332;9.860;2023-01-04T10:24:09;5.17;;;4.77;;
2522;SDS011;1272;53.332;9.860;2023-01-04T10:26:48;6.10;;;5.60;;
2522;SDS011;1272;53.332;9.860;2023-01-04T10:29:22;5.30;;;4.90;;
2522;SDS011;1272;53.332;9.860;2023-01-04T10:31:57;5.40;;;5.00;;
2522;SDS011;1272;53.332;9.860;2023-01-04T10:34:45;5.23;;;4.93;;
2522;SDS011;1272;53.332;9.860;2023-01-04T10:37:24;5.57;;;5.17;;
2522;SDS011;1272;53.332;9.860;2023-01-04T10:39:57;4.63;;;4.33;;
2522;SDS011;1272;53.332;9.860;2023-01-04T10:42:29;5.50;;;5.10;;
2522;SDS011;1272;53.332;9.860;2023-01-04T10:45:01;5.20;;;4.70;;
2522;SDS011;1272;53.332;9.860;2023-01-04T10:51:19;5.17;;;4.67;;
2522;SDS011;1272;53.332;9.860;2023-01-04T10:58:51;5.37;;;4.90;;
2522;SDS011;1272;53.332;9.860;2023-01-04T11:04:01;4.63;;;4.30;;
2522;SDS011;1272;53.332;9.860;2023-01-04T11:06:54;4.10;;;3.80;;
2522;SDS011;1272;53.332;9.860;2023-01-04T11:09:27;5.10;;;4.67;;
2522;SDS011;1272;53.332;9.860;2023-01-04T11:11:58;4.43;;;4.13;;
2522;SDS011;1272;53.332;9.860;2023-01-04T11:14:26;4.17;;;3.87;;
2522;SDS011;1272;53.332;9.860;2023-01-04T11:16:55;4.20;;;4.00;;
2522;SDS011;1272;53.332;9.860;2023-01-04T11:19:26;4.30;;;4.00;;
2522;SDS011;1272;53.332;9.860;2023-01-04T11:21:59;4.03;;;3.80;;
2522;SDS011;1272;53.332;9.860;2023-01-04T11:24:36;4.27;;;3.87;;
2522;SDS011;1272;53.332;9.860;2023-01-04T11:27:05;3.67;;;3.47;;
2522;SDS011;1272;53.332;9.860;2023-01-04T11:35:10;4.17;;;3.97;;
2522;SDS011;1272;53.332;9.860;2023-01-04T11:37:37;4.10;;;3.80;;
2522;SDS011;1272;53.332;9.860;2023-01-04T11:42:44;4.30;;;4.10;;
2522;SDS011;1272;53.332;9.860;2023-01-04T11:45:15;3.70;;;3.50;;
2522;SDS011;1272;53.332;9.860;2023-01-04T11:47:53;3.73;;;3.43;;
2522;SDS011;1272;53.332;9.860;2023-01-04T11:50:34;4.17;;;3.77;;
2522;SDS011;1272;53.332;9.860;2023-01-04T11:55:51;3.83;;;3.63;;
2522;SDS011;1272;53.332;9.860;2023-01-04T11:58:35;3.57;;;3.37;;
2522;SDS011;1272;53.332;9.860;2023-01-04T12:01:00;3.00;;;2.90;;
2522;SDS011;1272;53.332;9.860;2023-01-04T12:06:19;3.33;;;3.13;;
2522;SDS011;1272;53.332;9.860;2023-01-04T12:08:52;3.60;;;3.40;;
2522;SDS011;1272;53.332;9.860;2023-01-04T12:11:31;3.30;;;3.13;;
2522;SDS011;1272;53.332;9.860;2023-01-04T12:14:00;4.00;;;3.80;;
2522;SDS011;1272;53.332;9.860;2023-01-04T12:19:09;3.13;;;3.03;;
2522;SDS011;1272;53.332;9.860;2023-01-04T12:21:38;3.33;;;3.23;;
2522;SDS011;1272;53.332;9.860;2023-01-04T12:24:05;4.40;;;4.10;;
2522;SDS011;1272;53.332;9.860;2023-01-04T12:26:31;3.97;;;3.77;;
2522;SDS011;1272;53.332;9.860;2023-01-04T12:31:46;2.80;;;2.70;;
2522;SDS011;1272;53.332;9.860;2023-01-04T12:57:22;3.67;;;3.37;;
2522;SDS011;1272;53.332;9.860;2023-01-04T13:02:32;2.80;;;2.70;;
2522;SDS011;1272;53.332;9.860;2023-01-04T13:05:26;2.77;;;2.67;;
2522;SDS011;1272;53.332;9.860;2023-01-04T13:07:55;2.37;;;2.27;;
2522;SDS011;1272;53.332;9.860;2023-01-04T13:10:41;1.90;;;1.80;;
2522;SDS011;1272;53.332;9.860;2023-01-04T13:13:22;2.43;;;2.23;;
2522;SDS011;1272;53.332;9.860;2023-01-04T13:18:47;1.90;;;1.80;;
2522;SDS011;1272;53.332;9.860;2023-01-04T13:24:40;1.83;;;1.73;;
2522;SDS011;1272;53.332;9.860;2023-01-04T13:26:51;2.20;;;2.10;;
2522;SDS011;1272;53.332;9.860;2023-01-04T13:29:27;2.13;;;2.03;;
2522;SDS011;1272;53.332;9.860;2023-01-04T13:31:58;2.20;;;2.10;;
2522;SDS011;1272;53.332;9.860;2023-01-04T13:43:33;2.97;;;2.77;;
2522;SDS011;1272;53.332;9.860;2023-01-04T13:45:44;2.20;;;1.90;;
2522;SDS011;1272;53.332;9.860;2023-01-04T13:48:35;1.50;;;1.27;;
2522;SDS011;1272;53.332;9.860;2023-01-04T13:51:12;3.33;;;1.10;;
2522;SDS011;1272;53.332;9.860;2023-01-04T13:53:51;2.13;;;1.27;;
2522;SDS011;1272;53.332;9.860;2023-01-04T13:56:23;2.30;;;1.20;;
2522;SDS011;1272;53.332;9.860;2023-01-04T13:58:50;0.90;;;0.90;;
2522;SDS011;1272;53.332;9.860;2023-01-04T14:01:19;1.83;;;1.40;;
2522;SDS011;1272;53.332;9.860;2023-01-04T14:09:11;2.20;;;1.20;;
2522;SDS011;1272;53.332;9.860;2023-01-04T14:11:41;1.40;;;1.00;;
2522;SDS011;1272;53.332;9.860;2023-01-04T14:22:41;3.03;;;1.70;;
2522;SDS011;1272;53.332;9.860;2023-01-04T14:30:49;3.20;;;1.87;;
2522;SDS011;1272;53.332;9.860;2023-01-04T14:33:27;3.40;;;1.83;;
2522;SDS011;1272;53.332;9.860;2023-01-04T14:44:01;3.07;;;2.87;;
2522;SDS011;1272;53.332;9.860;2023-01-04T14:46:28;3.00;;;2.70;;
2522;SDS011;1272;53.332;9.860;2023-01-04T14:48:55;5.40;;;3.40;;
2522;SDS011;1272;53.332;9.860;2023-01-04T14:51:22;5.43;;;3.47;;
2522;SDS011;1272;53.332;9.860;2023-01-04T14:54:02;3.37;;;3.17;;
2522;SDS011;1272;53.332;9.860;2023-01-04T14:56:29;3.73;;;3.20;;
2522;SDS011;1272;53.332;9.860;2023-01-04T14:58:54;5.57;;;3.30;;
2522;SDS011;1272;53.332;9.860;2023-01-04T15:01:20;4.30;;;3.90;;
2522;SDS011;1272;53.332;9.860;2023-01-04T15:03:46;4.47;;;4.07;;
2522;SDS011;1272;53.332;9.860;2023-01-04T15:06:12;5.40;;;4.60;;
2522;SDS011;1272;53.332;9.860;2023-01-04T15:08:38;5.10;;;4.20;;
2522;SDS011;1272;53.332;9.860;2023-01-04T15:11:03;4.27;;;3.87;;
2522;SDS011;1272;53.332;9.860;2023-01-04T15:13:29;5.83;;;4.67;;
2522;SDS011;1272;53.332;9.860;2023-01-04T15:15:56;4.20;;;3.67;;
2522;SDS011;1272;53.332;9.860;2023-01-04T15:18:22;4.50;;;4.20;;
2522;SDS011;1272;53.332;9.860;2023-01-04T15:20:47;5.30;;;4.20;;
2522;SDS011;1272;53.332;9.860;2023-01-04T15:23:13;4.23;;;3.93;;
2522;SDS011;1272;53.332;9.860;2023-01-04T15:25:39;4.33;;;3.60;;
2522;SDS011;1272;53.332;9.860;2023-01-04T15:28:06;7.10;;;3.97;;
2522;SDS011;1272;53.332;9.860;2023-01-04T15:30:32;4.80;;;4.37;;
2522;SDS011;1272;53.332;9.860;2023-01-04T15:32:59;3.27;;;2.97;;
2522;SDS011;1272;53.332;9.860;2023-01-04T15:35:25;5.80;;;4.27;;
2522;SDS011;1272;53.332;9.860;2023-01-04T15:37:51;4.27;;;3.83;;
2522;SDS011;1272;53.332;9.860;2023-01-04T15:40:17;5.57;;;2.80;;
2522;SDS011;1272;53.332;9.860;2023-01-04T15:42:43;4.20;;;2.97;;
2522;SDS011;1272;53.332;9.860;2023-01-04T15:45:28;5.67;;;3.20;;
2522;SDS011;1272;53.332;9.860;2023-01-04T15:47:58;6.37;;;3.27;;
2522;SDS011;1272;53.332;9.860;2023-01-04T15:50:32;5.20;;;2.87;;
2522;SDS011;1272;53.332;9.860;2023-01-04T15:52:59;4.93;;;2.70;;
2522;SDS011;1272;53.332;9.860;2023-01-04T15:55:25;4.47;;;3.50;;
2522;SDS011;1272;53.332;9.860;2023-01-04T15:57:55;10.80;;;2.87;;
2522;SDS011;1272;53.332;9.860;2023-01-04T16:00:20;5.87;;;2.77;;
2522;SDS011;1272;53.332;9.860;2023-01-04T16:02:46;4.40;;;3.30;;
2522;SDS011;1272;53.332;9.860;2023-01-04T16:05:12;7.23;;;3.17;;
2522;SDS011;1272;53.332;9.860;2023-01-04T16:07:40;6.27;;;2.90;;
2522;SDS011;1272;53.332;9.860;2023-01-04T16:10:06;5.57;;;3.20;;
2522;SDS011;1272;53.332;9.860;2023-01-04T16:12:32;9.13;;;3.10;;
2522;SDS011;1272;53.332;9.860;2023-01-04T16:15:16;7.60;;;3.80;;
2522;SDS011;1272;53.332;9.860;2023-01-04T16:17:43;5.27;;;3.53;;
2522;SDS011;1272;53.332;9.860;2023-01-04T16:20:10;10.30;;;3.47;;
2522;SDS011;1272;53.332;9.860;2023-01-04T16:22:38;4.37;;;3.97;;
2522;SDS011;1272;53.332;9.860;2023-01-04T16:25:04;4.67;;;3.33;;
2522;SDS011;1272;53.332;9.860;2023-01-04T16:27:31;5.30;;;3.57;;
2522;SDS011;1272;53.332;9.860;2023-01-04T16:29:59;7.83;;;3.43;;
2522;SDS011;1272;53.332;9.860;2023-01-04T16:32:28;10.70;;;4.87;;
2522;SDS011;1272;53.332;9.860;2023-01-04T16:34:57;6.47;;;4.20;;
2522;SDS011;1272;53.332;9.860;2023-01-04T16:37:25;10.17;;;4.40;;
2522;SDS011;1272;53.332;9.860;2023-01-04T16:39:52;8.87;;;4.47;;
2522;SDS011;1272;53.332;9.860;2023-01-04T16:42:17;8.30;;;3.40;;
2522;SDS011;1272;53.332;9.860;2023-01-04T16:44:43;11.60;;;4.77;;
2522;SDS011;1272;53.332;9.860;2023-01-04T16:47:10;8.57;;;3.57;;
2522;SDS011;1272;53.332;9.860;2023-01-04T16:49:36;8.63;;;3.63;;
2522;SDS011;1272;53.332;9.860;2023-01-04T16:52:02;10.87;;;4.00;;
2522;SDS011;1272;53.332;9.860;2023-01-04T16:54:28;14.53;;;4.57;;
2522;SDS011;1272;53.332;9.860;2023-01-04T16:56:53;10.93;;;3.83;;
2522;SDS011;1272;53.332;9.860;2023-01-04T16:59:22;11.07;;;3.90;;
2522;SDS011;1272;53.332;9.860;2023-01-04T17:01:48;13.13;;;3.70;;
2522;SDS011;1272;53.332;9.860;2023-01-04T17:04:16;8.77;;;4.60;;
2522;SDS011;1272;53.332;9.860;2023-01-04T17:06:43;13.27;;;3.53;;
2522;SDS011;1272;53.332;9.860;2023-01-04T17:09:14;10.87;;;3.77;;
2522;SDS011;1272;53.332;9.860;2023-01-04T17:11:41;9.93;;;3.40;;
2522;SDS011;1272;53.332;9.860;2023-01-04T17:14:21;12.50;;;4.57;;
2522;SDS011;1272;53.332;9.860;2023-01-04T17:16:54;11.77;;;3.40;;
2522;SDS011;1272;53.332;9.860;2023-01-04T17:19:21;11.30;;;3.43;;
2522;SDS011;1272;53.332;9.860;2023-01-04T17:21:47;16.97;;;4.30;;
2522;SDS011;1272;53.332;9.860;2023-01-04T17:24:13;13.57;;;4.00;;
2522;SDS011;1272;53.332;9.860;2023-01-04T17:26:40;9.60;;;3.90;;
2522;SDS011;1272;53.332;9.860;2023-01-04T17:29:06;9.87;;;4.03;;
2522;SDS011;1272;53.332;9.860;2023-01-04T17:31:33;12.10;;;4.63;;
2522;SDS011;1272;53.332;9.860;2023-01-04T17:34:03;10.20;;;4.10;;
2522;SDS011;1272;53.332;9.860;2023-01-04T17:36:29;14.63;;;4.50;;
2522;SDS011;1272;53.332;9.860;2023-01-04T17:38:54;13.97;;;4.53;;
2522;SDS011;1272;53.332;9.860;2023-01-04T17:41:26;14.03;;;4.53;;
2522;SDS011;1272;53.332;9.860;2023-01-04T17:43:55;13.57;;;4.20;;
2522;SDS011;1272;53.332;9.860;2023-01-04T17:46:25;12.27;;;4.50;;
2522;SDS011;1272;53.332;9.860;2023-01-04T17:48:51;12.37;;;3.97;;
2522;SDS011;1272;53.332;9.860;2023-01-04T17:51:18;17.40;;;3.63;;
2522;SDS011;1272;53.332;9.860;2023-01-04T17:53:46;11.47;;;3.87;;
2522;SDS011;1272;53.332;9.860;2023-01-04T17:56:14;11.53;;;4.73;;
2522;SDS011;1272;53.332;9.860;2023-01-04T17:58:42;13.20;;;4.90;;
2522;SDS011;1272;53.332;9.860;2023-01-04T18:03:42;15.77;;;5.07;;
2522;SDS011;1272;53.332;9.860;2023-01-04T18:06:09;18.20;;;4.73;;
2522;SDS011;1272;53.332;9.860;2023-01-04T18:08:36;15.43;;;4.87;;
2522;SDS011;1272;53.332;9.860;2023-01-04T18:11:02;14.20;;;4.43;;